sensor_id;sensor_type;location;lat;lon;timestamp;temperature;humidity
39023;DHT22;25908;51.984;5.928;2023-03-11T00:00:32;3.20;99.90
39023;DHT22;25908;51.984;5.928;2023-03-11T00:02:59;3.20;99.90
39023;DHT22;25908;51.984;5.928;2023-03-11T00:05:28;3.20;99.90
39023;DHT22;25908;51.984;5.928;2023-03-11T00:07:54;3.20;99.90
39023;DHT22;25908;51.984;5.928;2023-03-11T00:10:25;3.10;99.90
39023;DHT22;25908;51.984;5.928;2023-03-11T00:12:52;3.10;99.90
39023;DHT22;25908;51.984;5.928;2023-03-11T00:15:18;3.00;99.90
39023;DHT22;25908;51.984;5.928;2023-03-11T00:17:44;3.00;99.90
39023;DHT22;25908;51.984;5.928;2023-03-11T00:20:24;3.00;99.90
39023;DHT22;25908;51.984;5.928;2023-03-11T00:22:50;3.00;99.90
39023;DHT22;25908;51.984;5.928;2023-03-11T00:25:17;3.00;99.90
39023;DHT22;25908;51.984;5.928;2023-03-11T00:27:43;3.00;99.90
39023;DHT22;25908;51.984;5.928;2023-03-11T00:30:10;3.00;99.90
39023;DHT22;25908;51.984;5.928;2023-03-11T00:32:36;3.00;99.90
39023;DHT22;25908;51.984;5.928;2023-03-11T00:35:02;3.00;99.90
39023;DHT22;25908;51.984;5.928;2023-03-11T00:37:27;3.00;99.90
39023;DHT22;25908;51.984;5.928;2023-03-11T00:39:53;3.00;99.90
39023;DHT22;25908;51.984;5.928;2023-03-11T00:42:19;3.00;99.90
39023;DHT22;25908;51.984;5.928;2023-03-11T00:44:44;3.00;99.90
39023;DHT22;25908;51.984;5.928;2023-03-11T00:47:10;3.00;99.90
39023;DHT22;25908;51.984;5.928;2023-03-11T00:49:36;2.90;99.90
39023;DHT22;25908;51.984;5.928;2023-03-11T00:52:03;2.90;99.90
39023;DHT22;25908;51.984;5.928;2023-03-11T00:54:28;2.90;99.90
39023;DHT22;25908;51.984;5.928;2023-03-11T00:56:54;2.90;99.90
39023;DHT22;25908;51.984;5.928;2023-03-11T00:59:20;2.90;99.90
39023;DHT22;25908;51.984;5.928;2023-03-11T01:01:45;2.80;99.90
39023;DHT22;25908;51.984;5.928;2023-03-11T01:04:11;2.80;99.90
39023;DHT22;25908;51.984;5.928;2023-03-11T01:06:36;2.80;99.90
39023;DHT22;25908;51.984;5.928;2023-03-11T01:09:02;2.80;99.90
39023;DHT22;25908;51.984;5.928;2023-03-11T01:11:29;2.80;99.90
39023;DHT22;25908;51.984;5.928;2023-03-11T01:13:54;2.80;99.90
39023;DHT22;25908;51.984;5.928;2023-03-11T01:16:20;2.80;99.90
39023;DHT22;25908;51.984;5.928;2023-03-11T01:18:46;2.80;99.90
39023;DHT22;25908;51.984;5.928;2023-03-11T01:21:12;2.80;99.90
39023;DHT22;25908;51.984;5.928;2023-03-11T01:23:38;2.80;99.90
39023;DHT22;25908;51.984;5.928;2023-03-11T01:26:04;2.80;99.90
39023;DHT22;25908;51.984;5.928;2023-03-11T01:28:30;2.90;99.90
39023;DHT22;25908;51.984;5.928;2023-03-11T01:30:55;2.80;99.90
39023;DHT22;25908;51.984;5.928;2023-03-11T01:33:21;2.80;99.90
39023;DHT22;25908;51.984;5.928;2023-03-11T01:35:46;2.80;99.90
39023;DHT22;25908;51.984;5.928;2023-03-11T01:38:13;2.80;99.90
39023;DHT22;25908;51.984;5.928;2023-03-11T01:40:46;2.80;99.90
39023;DHT22;25908;51.984;5.928;2023-03-11T01:46:25;2.70;99.90
39023;DHT22;25908;51.984;5.928;2023-03-11T01:48:53;2.70;99.90
39023;DHT22;25908;51.984;5.928;2023-03-11T01:53:55;2.60;99.90
39023;DHT22;25908;51.984;5.928;2023-03-11T01:56:22;2.70;99.90
39023;DHT22;25908;51.984;5.928;2023-03-11T01:58:50;2.60;99.90
39023;DHT22;25908;51.984;5.928;2023-03-11T02:01:18;2.60;99.90
39023;DHT22;25908;51.984;5.928;2023-03-11T02:03:44;2.60;99.90
39023;DHT22;25908;51.984;5.928;2023-03-11T02:06:16;2.60;99.90
39023;DHT22;25908;51.984;5.928;2023-03-11T02:08:43;2.60;99.90
39023;DHT22;25908;51.984;5.928;2023-03-11T02:11:13;2.60;99.90
39023;DHT22;25908;51.984;5.928;2023-03-11T02:13:40;2.60;99.90
39023;DHT22;25908;51.984;5.928;2023-03-11T02:16:08;2.60;99.90
39023;DHT22;25908;51.984;5.928;2023-03-11T02:18:35;2.60;99.90
39023;DHT22;25908;51.984;5.928;2023-03-11T02:24:20;2.60;99.90
39023;DHT22;25908;51.984;5.928;2023-03-11T02:26:52;2.60;99.90
39023;DHT22;25908;51.984;5.928;2023-03-11T02:29:18;2.60;99.90
39023;DHT22;25908;51.984;5.928;2023-03-11T02:31:44;2.50;99.90
39023;DHT22;25908;51.984;5.928;2023-03-11T02:34:17;2.50;99.90
39023;DHT22;25908;51.984;5.928;2023-03-11T02:36:45;2.50;99.90
39023;DHT22;25908;51.984;5.928;2023-03-11T02:39:11;2.50;99.90
39023;DHT22;25908;51.984;5.928;2023-03-11T02:41:39;2.50;99.90
39023;DHT22;25908;51.984;5.928;2023-03-11T02:44:08;2.50;99.90
39023;DHT22;25908;51.984;5.928;2023-03-11T02:46:36;2.50;99.90
39023;DHT22;25908;51.984;5.928;2023-03-11T02:49:04;2.50;99.90
39023;DHT22;25908;51.984;5.928;2023-03-11T02:51:30;2.50;99.90
39023;DHT22;25908;51.984;5.928;2023-03-11T02:54:00;2.50;99.90
39023;DHT22;25908;51.984;5.928;2023-03-11T02:56:27;2.50;99.90
39023;DHT22;25908;51.984;5.928;2023-03-11T02:58:53;2.50;99.90
39023;DHT22;25908;51.984;5.928;2023-03-11T03:01:18;2.50;99.90
39023;DHT22;25908;51.984;5.928;2023-03-11T03:03:44;2.50;99.90
39023;DHT22;25908;51.984;5.928;2023-03-11T03:06:10;2.50;99.90
39023;DHT22;25908;51.984;5.928;2023-03-11T03:08:36;2.50;99.90
39023;DHT22;25908;51.984;5.928;2023-03-11T03:11:01;2.50;99.90
39023;DHT22;25908;51.984;5.928;2023-03-11T03:13:28;2.50;99.90
39023;DHT22;25908;51.984;5.928;2023-03-11T03:15:54;2.50;99.90
39023;DHT22;25908;51.984;5.928;2023-03-11T03:18:19;2.50;99.90
39023;DHT22;25908;51.984;5.928;2023-03-11T03:20:45;2.50;99.90
39023;DHT22;25908;51.984;5.928;2023-03-11T03:23:11;2.50;99.90
39023;DHT22;25908;51.984;5.928;2023-03-11T03:25:36;2.50;99.90
39023;DHT22;25908;51.984;5.928;2023-03-11T03:28:02;2.50;99.90
39023;DHT22;25908;51.984;5.928;2023-03-11T03:30:28;2.50;99.90
39023;DHT22;25908;51.984;5.928;2023-03-11T03:32:54;2.50;99.90
39023;DHT22;25908;51.984;5.928;2023-03-11T03:35:20;2.50;99.90
39023;DHT22;25908;51.984;5.928;2023-03-11T03:37:46;2.40;99.90
39023;DHT22;25908;51.984;5.928;2023-03-11T03:40:12;2.40;99.90
39023;DHT22;25908;51.984;5.928;2023-03-11T03:42:38;2.40;99.90
39023;DHT22;25908;51.984;5.928;2023-03-11T03:45:06;2.40;99.90
39023;DHT22;25908;51.984;5.928;2023-03-11T03:47:33;2.40;99.90
39023;DHT22;25908;51.984;5.928;2023-03-11T03:49:58;2.50;99.90
39023;DHT22;25908;51.984;5.928;2023-03-11T03:52:24;2.40;99.90
39023;DHT22;25908;51.984;5.928;2023-03-11T03:54:50;2.50;99.90
39023;DHT22;25908;51.984;5.928;2023-03-11T03:57:16;2.50;99.90
39023;DHT22;25908;51.984;5.928;2023-03-11T03:59:41;2.50;99.90
39023;DHT22;25908;51.984;5.928;2023-03-11T04:02:07;2.50;99.90
39023;DHT22;25908;51.984;5.928;2023-03-11T04:04:32;2.50;99.90
39023;DHT22;25908;51.984;5.928;2023-03-11T04:06:58;2.60;99.90
39023;DHT22;25908;51.984;5.928;2023-03-11T04:09:24;2.60;99.90
39023;DHT22;25908;51.984;5.928;2023-03-11T04:11:49;2.60;99.90
39023;DHT22;25908;51.984;5.928;2023-03-11T04:14:15;2.60;99.90
39023;DHT22;25908;51.984;5.928;2023-03-11T04:16:41;2.60;99.90
39023;DHT22;25908;51.984;5.928;2023-03-11T04:19:07;2.60;99.90
39023;DHT22;25908;51.984;5.928;2023-03-11T04:21:32;2.60;99.90
39023;DHT22;25908;51.984;5.928;2023-03-11T04:23:58;2.60;99.90
39023;DHT22;25908;51.984;5.928;2023-03-11T04:26:24;2.50;99.90
39023;DHT22;25908;51.984;5.928;2023-03-11T04:28:50;2.50;99.90
39023;DHT22;25908;51.984;5.928;2023-03-11T04:31:15;2.50;99.90
39023;DHT22;25908;51.984;5.928;2023-03-11T04:33:41;2.50;99.90
39023;DHT22;25908;51.984;5.928;2023-03-11T04:36:08;2.50;99.90
39023;DHT22;25908;51.984;5.928;2023-03-11T04:38:34;2.40;99.90
39023;DHT22;25908;51.984;5.928;2023-03-11T04:41:01;2.40;99.90
39023;DHT22;25908;51.984;5.928;2023-03-11T04:43:27;2.40;99.90
39023;DHT22;25908;51.984;5.928;2023-03-11T04:45:53;2.40;99.90
39023;DHT22;25908;51.984;5.928;2023-03-11T04:48:18;2.40;99.90
39023;DHT22;25908;51.984;5.928;2023-03-11T04:50:44;2.40;99.90
39023;DHT22;25908;51.984;5.928;2023-03-11T04:53:10;2.40;99.90
39023;DHT22;25908;51.984;5.928;2023-03-11T04:55:35;2.40;99.90
39023;DHT22;25908;51.984;5.928;2023-03-11T04:58:01;2.40;99.90
39023;DHT22;25908;51.984;5.928;2023-03-11T05:00:26;2.40;99.90
39023;DHT22;25908;51.984;5.928;2023-03-11T05:02:52;2.40;99.90
39023;DHT22;25908;51.984;5.928;2023-03-11T05:05:18;2.40;99.90
39023;DHT22;25908;51.984;5.928;2023-03-11T05:07:44;2.30;99.90
39023;DHT22;25908;51.984;5.928;2023-03-11T05:10:10;2.30;99.90
39023;DHT22;25908;51.984;5.928;2023-03-11T05:12:36;2.30;99.90
39023;DHT22;25908;51.984;5.928;2023-03-11T05:15:02;2.30;99.90
39023;DHT22;25908;51.984;5.928;2023-03-11T05:17:27;2.30;99.90
39023;DHT22;25908;51.984;5.928;2023-03-11T05:19:53;2.30;99.90
39023;DHT22;25908;51.984;5.928;2023-03-11T05:22:19;2.30;99.90
39023;DHT22;25908;51.984;5.928;2023-03-11T05:24:45;2.30;99.90
39023;DHT22;25908;51.984;5.928;2023-03-11T05:27:11;2.20;99.90
39023;DHT22;25908;51.984;5.928;2023-03-11T05:29:37;2.30;99.90
39023;DHT22;25908;51.984;5.928;2023-03-11T05:32:03;2.30;99.90
39023;DHT22;25908;51.984;5.928;2023-03-11T05:34:28;2.20;99.90
39023;DHT22;25908;51.984;5.928;2023-03-11T05:36:54;2.20;99.90
39023;DHT22;25908;51.984;5.928;2023-03-11T05:39:20;2.20;99.90
39023;DHT22;25908;51.984;5.928;2023-03-11T05:41:45;2.20;99.90
39023;DHT22;25908;51.984;5.928;2023-03-11T05:44:11;2.20;99.90
39023;DHT22;25908;51.984;5.928;2023-03-11T05:46:36;2.20;99.90
39023;DHT22;25908;51.984;5.928;2023-03-11T05:49:02;2.20;99.90
39023;DHT22;25908;51.984;5.928;2023-03-11T05:51:28;2.10;99.90
39023;DHT22;25908;51.984;5.928;2023-03-11T05:53:53;2.20;99.90
39023;DHT22;25908;51.984;5.928;2023-03-11T05:56:21;2.10;99.90
39023;DHT22;25908;51.984;5.928;2023-03-11T05:58:47;2.10;99.90
39023;DHT22;25908;51.984;5.928;2023-03-11T06:01:15;2.10;99.90
39023;DHT22;25908;51.984;5.928;2023-03-11T06:03:42;2.10;99.90
39023;DHT22;25908;51.984;5.928;2023-03-11T06:06:10;2.10;99.90
39023;DHT22;25908;51.984;5.928;2023-03-11T06:08:36;2.10;99.90
39023;DHT22;25908;51.984;5.928;2023-03-11T06:11:08;2.10;99.90
39023;DHT22;25908;51.984;5.928;2023-03-11T06:13:34;2.10;99.90
39023;DHT22;25908;51.984;5.928;2023-03-11T06:16:00;2.10;99.90
39023;DHT22;25908;51.984;5.928;2023-03-11T06:18:26;2.10;99.90
39023;DHT22;25908;51.984;5.928;2023-03-11T06:20:52;2.10;99.90
39023;DHT22;25908;51.984;5.928;2023-03-11T06:23:18;2.10;99.90
39023;DHT22;25908;51.984;5.928;2023-03-11T06:25:53;2.10;99.90
39023;DHT22;25908;51.984;5.928;2023-03-11T06:28:19;2.10;99.90
39023;DHT22;25908;51.984;5.928;2023-03-11T06:30:44;2.10;99.90
39023;DHT22;25908;51.984;5.928;2023-03-11T06:33:10;2.10;99.90
39023;DHT22;25908;51.984;5.928;2023-03-11T06:35:35;2.10;99.90
39023;DHT22;25908;51.984;5.928;2023-03-11T06:38:01;2.10;99.90
39023;DHT22;25908;51.984;5.928;2023-03-11T06:40:26;2.10;99.90
39023;DHT22;25908;51.984;5.928;2023-03-11T06:42:52;2.10;99.90
39023;DHT22;25908;51.984;5.928;2023-03-11T06:45:18;2.10;99.90
39023;DHT22;25908;51.984;5.928;2023-03-11T06:47:43;2.10;99.90
39023;DHT22;25908;51.984;5.928;2023-03-11T06:50:09;2.10;99.90
39023;DHT22;25908;51.984;5.928;2023-03-11T06:52:35;2.10;99.90
39023;DHT22;25908;51.984;5.928;2023-03-11T06:55:00;2.10;99.90
39023;DHT22;25908;51.984;5.928;2023-03-11T06:57:26;2.20;99.90
39023;DHT22;25908;51.984;5.928;2023-03-11T06:59:52;2.20;99.90
39023;DHT22;25908;51.984;5.928;2023-03-11T07:02:17;2.20;99.90
39023;DHT22;25908;51.984;5.928;2023-03-11T07:04:43;2.20;99.90
39023;DHT22;25908;51.984;5.928;2023-03-11T07:07:08;2.20;99.90
39023;DHT22;25908;51.984;5.928;2023-03-11T07:09:34;2.20;99.90
39023;DHT22;25908;51.984;5.928;2023-03-11T07:12:00;2.30;99.90
39023;DHT22;25908;51.984;5.928;2023-03-11T07:14:25;2.30;99.90
39023;DHT22;25908;51.984;5.928;2023-03-11T07:16:51;2.30;99.90
39023;DHT22;25908;51.984;5.928;2023-03-11T07:19:16;2.40;99.90
39023;DHT22;25908;51.984;5.928;2023-03-11T07:21:42;2.40;99.90
39023;DHT22;25908;51.984;5.928;2023-03-11T07:24:11;2.40;99.90
39023;DHT22;25908;51.984;5.928;2023-03-11T07:26:37;2.50;99.90
39023;DHT22;25908;51.984;5.928;2023-03-11T07:29:03;2.50;99.90
39023;DHT22;25908;51.984;5.928;2023-03-11T07:31:30;2.60;99.90
39023;DHT22;25908;51.984;5.928;2023-03-11T07:33:59;2.70;99.90
39023;DHT22;25908;51.984;5.928;2023-03-11T07:36:25;2.90;99.90
39023;DHT22;25908;51.984;5.928;2023-03-11T07:39:01;3.20;99.90
39023;DHT22;25908;51.984;5.928;2023-03-11T07:41:29;3.60;99.90
39023;DHT22;25908;51.984;5.928;2023-03-11T07:43:57;4.00;99.90
39023;DHT22;25908;51.984;5.928;2023-03-11T07:46:25;4.50;99.90
39023;DHT22;25908;51.984;5.928;2023-03-11T07:48:51;5.00;99.90
39023;DHT22;25908;51.984;5.928;2023-03-11T07:51:20;5.50;99.90
39023;DHT22;25908;51.984;5.928;2023-03-11T07:53:46;5.90;99.90
39023;DHT22;25908;51.984;5.928;2023-03-11T07:56:14;6.20;99.90
39023;DHT22;25908;51.984;5.928;2023-03-11T07:58:40;6.60;99.90
39023;DHT22;25908;51.984;5.928;2023-03-11T08:01:09;6.90;99.90
39023;DHT22;25908;51.984;5.928;2023-03-11T08:03:36;7.20;98.40
39023;DHT22;25908;51.984;5.928;2023-03-11T08:06:02;7.60;97.70
39023;DHT22;25908;51.984;5.928;2023-03-11T08:08:28;7.80;95.40
39023;DHT22;25908;51.984;5.928;2023-03-11T08:10:53;8.10;95.30
39023;DHT22;25908;51.984;5.928;2023-03-11T08:13:19;8.40;95.50
39023;DHT22;25908;51.984;5.928;2023-03-11T08:15:45;8.60;93.70
39023;DHT22;25908;51.984;5.928;2023-03-11T08:18:10;8.80;92.80
39023;DHT22;25908;51.984;5.928;2023-03-11T08:20:37;9.00;91.80
39023;DHT22;25908;51.984;5.928;2023-03-11T08:23:04;9.30;92.50
39023;DHT22;25908;51.984;5.928;2023-03-11T08:25:29;9.50;91.10
39023;DHT22;25908;51.984;5.928;2023-03-11T08:27:56;9.70;88.80
39023;DHT22;25908;51.984;5.928;2023-03-11T08:30:21;9.80;90.00
39023;DHT22;25908;51.984;5.928;2023-03-11T08:32:47;10.10;90.50
39023;DHT22;25908;51.984;5.928;2023-03-11T08:35:13;10.20;87.30
39023;DHT22;25908;51.984;5.928;2023-03-11T08:37:39;10.40;86.10
39023;DHT22;25908;51.984;5.928;2023-03-11T08:40:05;10.50;85.70
39023;DHT22;25908;51.984;5.928;2023-03-11T08:42:32;10.60;82.00
39023;DHT22;25908;51.984;5.928;2023-03-11T08:44:57;10.60;80.00
39023;DHT22;25908;51.984;5.928;2023-03-11T08:47:23;10.70;81.40
39023;DHT22;25908;51.984;5.928;2023-03-11T08:49:48;10.80;82.50
39023;DHT22;25908;51.984;5.928;2023-03-11T08:52:14;10.90;84.30
39023;DHT22;25908;51.984;5.928;2023-03-11T08:54:40;10.90;77.90
39023;DHT22;25908;51.984;5.928;2023-03-11T08:57:07;11.00;79.50
39023;DHT22;25908;51.984;5.928;2023-03-11T08:59:32;11.10;79.30
39023;DHT22;25908;51.984;5.928;2023-03-11T09:01:58;11.20;77.80
39023;DHT22;25908;51.984;5.928;2023-03-11T09:04:23;11.30;79.50
39023;DHT22;25908;51.984;5.928;2023-03-11T09:06:49;11.40;79.10
39023;DHT22;25908;51.984;5.928;2023-03-11T09:09:15;11.50;75.40
39023;DHT22;25908;51.984;5.928;2023-03-11T09:11:42;11.50;77.20
39023;DHT22;25908;51.984;5.928;2023-03-11T09:14:07;11.50;76.80
39023;DHT22;25908;51.984;5.928;2023-03-11T09:16:33;11.40;72.90
39023;DHT22;25908;51.984;5.928;2023-03-11T09:18:59;11.50;74.40
39023;DHT22;25908;51.984;5.928;2023-03-11T09:21:27;11.50;75.40
39023;DHT22;25908;51.984;5.928;2023-03-11T09:23:53;11.60;73.00
39023;DHT22;25908;51.984;5.928;2023-03-11T09:26:19;11.50;76.10
39023;DHT22;25908;51.984;5.928;2023-03-11T09:28:44;11.60;73.70
39023;DHT22;25908;51.984;5.928;2023-03-11T09:31:14;11.60;73.40
39023;DHT22;25908;51.984;5.928;2023-03-11T09:33:41;11.70;71.80
39023;DHT22;25908;51.984;5.928;2023-03-11T09:36:11;11.80;73.40
39023;DHT22;25908;51.984;5.928;2023-03-11T09:38:37;11.80;75.50
39023;DHT22;25908;51.984;5.928;2023-03-11T09:44:10;11.70;74.20
39023;DHT22;25908;51.984;5.928;2023-03-11T09:49:30;11.30;74.10
39023;DHT22;25908;51.984;5.928;2023-03-11T09:52:15;11.00;74.60
39023;DHT22;25908;51.984;5.928;2023-03-11T09:54:51;10.80;75.00
39023;DHT22;25908;51.984;5.928;2023-03-11T09:57:37;10.60;75.40
39023;DHT22;25908;51.984;5.928;2023-03-11T10:00:05;10.50;75.90
39023;DHT22;25908;51.984;5.928;2023-03-11T10:02:31;10.50;73.40
39023;DHT22;25908;51.984;5.928;2023-03-11T10:05:07;10.30;75.30
39023;DHT22;25908;51.984;5.928;2023-03-11T10:07:39;10.20;77.50
39023;DHT22;25908;51.984;5.928;2023-03-11T10:10:09;10.10;74.10
39023;DHT22;25908;51.984;5.928;2023-03-11T10:13:05;10.10;80.40
39023;DHT22;25908;51.984;5.928;2023-03-11T10:23:55;10.40;76.80
39023;DHT22;25908;51.984;5.928;2023-03-11T10:26:35;10.40;71.00
39023;DHT22;25908;51.984;5.928;2023-03-11T10:29:24;10.40;72.40
39023;DHT22;25908;51.984;5.928;2023-03-11T10:34:36;10.10;73.50
39023;DHT22;25908;51.984;5.928;2023-03-11T10:39:33;10.00;77.30
39023;DHT22;25908;51.984;5.928;2023-03-11T10:42:01;10.00;76.40
39023;DHT22;25908;51.984;5.928;2023-03-11T10:44:34;9.90;78.10
39023;DHT22;25908;51.984;5.928;2023-03-11T10:47:00;9.80;78.80
39023;DHT22;25908;51.984;5.928;2023-03-11T10:49:26;9.90;77.90
39023;DHT22;25908;51.984;5.928;2023-03-11T10:51:53;9.90;77.40
39023;DHT22;25908;51.984;5.928;2023-03-11T10:54:42;9.90;74.30
39023;DHT22;25908;51.984;5.928;2023-03-11T10:59:58;9.80;75.90
39023;DHT22;25908;51.984;5.928;2023-03-11T11:02:40;9.80;75.40
39023;DHT22;25908;51.984;5.928;2023-03-11T11:07:44;9.70;72.70
39023;DHT22;25908;51.984;5.928;2023-03-11T11:13:00;9.60;72.20
39023;DHT22;25908;51.984;5.928;2023-03-11T11:15:36;9.60;71.70
39023;DHT22;25908;51.984;5.928;2023-03-11T11:18:03;9.70;77.40
39023;DHT22;25908;51.984;5.928;2023-03-11T11:20:31;9.70;76.40
39023;DHT22;25908;51.984;5.928;2023-03-11T11:23:00;9.80;76.20
39023;DHT22;25908;51.984;5.928;2023-03-11T11:25:33;9.90;77.30
39023;DHT22;25908;51.984;5.928;2023-03-11T11:28:17;10.00;77.60
39023;DHT22;25908;51.984;5.928;2023-03-11T11:30:56;10.00;75.40
39023;DHT22;25908;51.984;5.928;2023-03-11T11:33:37;10.00;76.10
39023;DHT22;25908;51.984;5.928;2023-03-11T11:36:04;10.00;74.60
39023;DHT22;25908;51.984;5.928;2023-03-11T11:38:32;10.00;75.70
39023;DHT22;25908;51.984;5.928;2023-03-11T11:41:01;10.20;76.50
39023;DHT22;25908;51.984;5.928;2023-03-11T11:43:49;10.10;73.20
39023;DHT22;25908;51.984;5.928;2023-03-11T11:49:29;10.10;72.00
39023;DHT22;25908;51.984;5.928;2023-03-11T11:55:00;9.70;69.30
39023;DHT22;25908;51.984;5.928;2023-03-11T11:57:26;9.70;73.20
39023;DHT22;25908;51.984;5.928;2023-03-11T11:59:52;9.60;69.50
39023;DHT22;25908;51.984;5.928;2023-03-11T12:05:16;9.30;70.20
39023;DHT22;25908;51.984;5.928;2023-03-11T12:10:41;9.20;69.70
39023;DHT22;25908;51.984;5.928;2023-03-11T12:13:46;9.10;69.20
39023;DHT22;25908;51.984;5.928;2023-03-11T12:16:37;9.10;66.10
39023;DHT22;25908;51.984;5.928;2023-03-11T12:27:44;9.10;70.70
39023;DHT22;25908;51.984;5.928;2023-03-11T12:30:14;8.90;71.20
39023;DHT22;25908;51.984;5.928;2023-03-11T12:32:49;8.80;71.40
39023;DHT22;25908;51.984;5.928;2023-03-11T12:35:35;8.60;68.60
39023;DHT22;25908;51.984;5.928;2023-03-11T12:44:11;8.30;71.50
39023;DHT22;25908;51.984;5.928;2023-03-11T12:46:14;8.30;72.10
39023;DHT22;25908;51.984;5.928;2023-03-11T12:56:57;8.50;70.20
39023;DHT22;25908;51.984;5.928;2023-03-11T13:07:41;8.40;68.90
39023;DHT22;25908;51.984;5.928;2023-03-11T13:10:13;8.30;66.90
39023;DHT22;25908;51.984;5.928;2023-03-11T13:12:45;8.30;66.20
39023;DHT22;25908;51.984;5.928;2023-03-11T13:18:02;8.10;65.80
39023;DHT22;25908;51.984;5.928;2023-03-11T13:29:09;8.30;68.10
39023;DHT22;25908;51.984;5.928;2023-03-11T13:34:47;8.30;65.20
39023;DHT22;25908;51.984;5.928;2023-03-11T13:40:32;8.00;63.50
39023;DHT22;25908;51.984;5.928;2023-03-11T13:43:11;7.90;65.00
39023;DHT22;25908;51.984;5.928;2023-03-11T13:45:39;8.00;66.70
39023;DHT22;25908;51.984;5.928;2023-03-11T13:48:17;8.00;65.50
39023;DHT22;25908;51.984;5.928;2023-03-11T13:50:54;8.10;67.60
39023;DHT22;25908;51.984;5.928;2023-03-11T13:53:42;8.20;67.80
39023;DHT22;25908;51.984;5.928;2023-03-11T13:56:17;8.20;65.60
39023;DHT22;25908;51.984;5.928;2023-03-11T13:58:42;8.20;66.00
39023;DHT22;25908;51.984;5.928;2023-03-11T14:01:14;8.20;68.10
39023;DHT22;25908;51.984;5.928;2023-03-11T14:03:41;8.20;66.70
39023;DHT22;25908;51.984;5.928;2023-03-11T14:06:12;8.20;67.80
39023;DHT22;25908;51.984;5.928;2023-03-11T14:08:39;8.20;67.60
39023;DHT22;25908;51.984;5.928;2023-03-11T14:13:45;8.20;67.30
39023;DHT22;25908;51.984;5.928;2023-03-11T14:16:19;8.10;67.90
39023;DHT22;25908;51.984;5.928;2023-03-11T14:19:00;8.20;69.40
39023;DHT22;25908;51.984;5.928;2023-03-11T14:21:26;8.20;70.50
39023;DHT22;25908;51.984;5.928;2023-03-11T14:23:53;8.30;68.30
39023;DHT22;25908;51.984;5.928;2023-03-11T14:26:25;8.30;66.80
39023;DHT22;25908;51.984;5.928;2023-03-11T14:28:55;8.30;68.50
39023;DHT22;25908;51.984;5.928;2023-03-11T14:34:10;8.30;65.40
39023;DHT22;25908;51.984;5.928;2023-03-11T14:41:46;8.20;67.20
39023;DHT22;25908;51.984;5.928;2023-03-11T14:44:12;8.20;67.80
39023;DHT22;25908;51.984;5.928;2023-03-11T14:46:38;8.20;68.10
39023;DHT22;25908;51.984;5.928;2023-03-11T14:49:06;8.30;68.90
39023;DHT22;25908;51.984;5.928;2023-03-11T14:51:34;8.30;69.40
39023;DHT22;25908;51.984;5.928;2023-03-11T14:54:15;8.30;66.50
39023;DHT22;25908;51.984;5.928;2023-03-11T14:56:45;8.30;65.30
39023;DHT22;25908;51.984;5.928;2023-03-11T14:59:21;8.30;66.60
39023;DHT22;25908;51.984;5.928;2023-03-11T15:01:54;8.30;65.60
39023;DHT22;25908;51.984;5.928;2023-03-11T15:06:56;8.30;65.60
39023;DHT22;25908;51.984;5.928;2023-03-11T15:09:23;8.20;66.30
39023;DHT22;25908;51.984;5.928;2023-03-11T15:11:55;8.20;66.20
39023;DHT22;25908;51.984;5.928;2023-03-11T15:14:25;8.20;66.70
39023;DHT22;25908;51.984;5.928;2023-03-11T15:16:53;8.20;67.90
39023;DHT22;25908;51.984;5.928;2023-03-11T15:22:04;8.20;66.90
39023;DHT22;25908;51.984;5.928;2023-03-11T15:24:31;8.20;65.20
39023;DHT22;25908;51.984;5.928;2023-03-11T15:27:03;8.20;64.90
39023;DHT22;25908;51.984;5.928;2023-03-11T15:29:30;8.20;67.00
39023;DHT22;25908;51.984;5.928;2023-03-11T15:31:56;8.20;67.10
39023;DHT22;25908;51.984;5.928;2023-03-11T15:39:25;8.10;65.30
39023;DHT22;25908;51.984;5.928;2023-03-11T15:47:33;7.90;65.80
39023;DHT22;25908;51.984;5.928;2023-03-11T15:50:11;7.90;67.40
39023;DHT22;25908;51.984;5.928;2023-03-11T15:52:37;7.90;63.40
39023;DHT22;25908;51.984;5.928;2023-03-11T15:55:03;7.80;64.40
39023;DHT22;25908;51.984;5.928;2023-03-11T15:57:29;7.80;64.70
39023;DHT22;25908;51.984;5.928;2023-03-11T15:59:56;7.80;64.90
39023;DHT22;25908;51.984;5.928;2023-03-11T16:02:25;7.80;66.20
39023;DHT22;25908;51.984;5.928;2023-03-11T16:04:51;7.80;67.20
39023;DHT22;25908;51.984;5.928;2023-03-11T16:07:17;7.70;63.10
39023;DHT22;25908;51.984;5.928;2023-03-11T16:09:42;7.70;64.60
39023;DHT22;25908;51.984;5.928;2023-03-11T16:12:16;7.60;64.00
39023;DHT22;25908;51.984;5.928;2023-03-11T16:14:42;7.60;67.00
39023;DHT22;25908;51.984;5.928;2023-03-11T16:17:08;7.60;69.10
39023;DHT22;25908;51.984;5.928;2023-03-11T16:19:34;7.60;67.20
39023;DHT22;25908;51.984;5.928;2023-03-11T16:22:00;7.60;62.40
39023;DHT22;25908;51.984;5.928;2023-03-11T16:24:27;7.50;62.80
39023;DHT22;25908;51.984;5.928;2023-03-11T16:26:52;7.40;61.40
39023;DHT22;25908;51.984;5.928;2023-03-11T16:29:18;7.30;62.60
39023;DHT22;25908;51.984;5.928;2023-03-11T16:31:44;7.30;63.50
39023;DHT22;25908;51.984;5.928;2023-03-11T16:34:09;7.30;63.50
39023;DHT22;25908;51.984;5.928;2023-03-11T16:36:35;7.30;62.60
39023;DHT22;25908;51.984;5.928;2023-03-11T16:39:00;7.30;63.70
39023;DHT22;25908;51.984;5.928;2023-03-11T16:41:26;7.40;65.60
39023;DHT22;25908;51.984;5.928;2023-03-11T16:43:52;7.40;65.10
39023;DHT22;25908;51.984;5.928;2023-03-11T16:46:18;7.40;63.40
39023;DHT22;25908;51.984;5.928;2023-03-11T16:48:43;7.40;61.80
39023;DHT22;25908;51.984;5.928;2023-03-11T16:51:09;7.30;62.90
39023;DHT22;25908;51.984;5.928;2023-03-11T16:53:34;7.30;64.40
39023;DHT22;25908;51.984;5.928;2023-03-11T16:56:00;7.30;65.20
39023;DHT22;25908;51.984;5.928;2023-03-11T16:58:26;7.30;64.50
39023;DHT22;25908;51.984;5.928;2023-03-11T17:00:51;7.30;65.60
39023;DHT22;25908;51.984;5.928;2023-03-11T17:03:18;7.20;65.30
39023;DHT22;25908;51.984;5.928;2023-03-11T17:05:44;7.20;66.10
39023;DHT22;25908;51.984;5.928;2023-03-11T17:08:10;7.10;66.30
39023;DHT22;25908;51.984;5.928;2023-03-11T17:10:42;7.10;67.40
39023;DHT22;25908;51.984;5.928;2023-03-11T17:13:10;7.10;66.10
39023;DHT22;25908;51.984;5.928;2023-03-11T17:15:36;7.00;66.10
39023;DHT22;25908;51.984;5.928;2023-03-11T17:18:03;7.00;67.20
39023;DHT22;25908;51.984;5.928;2023-03-11T17:20:29;7.00;68.70
39023;DHT22;25908;51.984;5.928;2023-03-11T17:22:55;7.00;69.70
39023;DHT22;25908;51.984;5.928;2023-03-11T17:25:20;7.00;70.10
39023;DHT22;25908;51.984;5.928;2023-03-11T17:27:46;7.00;70.00
39023;DHT22;25908;51.984;5.928;2023-03-11T17:30:13;6.90;71.20
39023;DHT22;25908;51.984;5.928;2023-03-11T17:32:38;6.90;72.20
39023;DHT22;25908;51.984;5.928;2023-03-11T17:35:04;6.90;74.70
39023;DHT22;25908;51.984;5.928;2023-03-11T17:37:30;6.80;75.50
39023;DHT22;25908;51.984;5.928;2023-03-11T17:39:56;6.70;76.00
39023;DHT22;25908;51.984;5.928;2023-03-11T17:42:21;6.70;75.50
39023;DHT22;25908;51.984;5.928;2023-03-11T17:44:47;6.60;72.60
39023;DHT22;25908;51.984;5.928;2023-03-11T17:47:13;6.60;73.50
39023;DHT22;25908;51.984;5.928;2023-03-11T17:49:38;6.60;73.90
39023;DHT22;25908;51.984;5.928;2023-03-11T17:52:04;6.60;74.80